createdAt,value
2022-10-05T00:01:25.516Z,89.70
2022-10-05T00:03:50.535Z,89.80
2022-10-05T00:06:14.035Z,90.00
2022-10-05T00:08:37.705Z,89.50
2022-10-05T00:11:01.634Z,89.90
2022-10-05T00:13:28.367Z,90.10
2022-10-05T00:15:54.364Z,90.00
2022-10-05T00:18:20.578Z,90.10
2022-10-05T00:20:46.850Z,90.30
2022-10-05T00:23:19.307Z,90.10
2022-10-05T00:25:42.605Z,90.30
2022-10-05T00:28:17.503Z,90.50
2022-10-05T00:30:41.977Z,90.30
2022-10-05T00:33:05.285Z,90.50
2022-10-05T00:35:30.783Z,90.30
2022-10-05T00:37:56.907Z,90.80
2022-10-05T00:40:34.145Z,90.50
2022-10-05T00:43:14.131Z,90.70
2022-10-05T00:45:43.867Z,90.60
2022-10-05T00:48:19.368Z,90.40
2022-10-05T00:51:07.755Z,90.20
2022-10-05T00:53:43.593Z,90.30
2022-10-05T00:56:17.148Z,90.20
2022-10-05T00:58:54.821Z,90.70
2022-10-05T01:01:22.780Z,90.40
2022-10-05T01:03:58.636Z,90.60
2022-10-05T01:06:30.819Z,90.80
2022-10-05T01:09:08.116Z,91.20
2022-10-05T01:11:40.196Z,90.90
2022-10-05T01:14:14.132Z,90.70
2022-10-05T01:16:48.175Z,90.80
2022-10-05T01:19:30.553Z,90.70
2022-10-05T01:21:58.665Z,90.80
2022-10-05T01:24:48.669Z,90.80
2022-10-05T01:27:38.880Z,90.80
2022-10-05T01:30:06.618Z,90.90
2022-10-05T01:32:35.639Z,91.10
2022-10-05T01:35:10.878Z,91.20
2022-10-05T01:37:48.564Z,91.20
2022-10-05T01:40:24.292Z,91.30
2022-10-05T01:43:03.332Z,91.50
2022-10-05T01:45:35.409Z,91.50
2022-10-05T01:48:09.521Z,91.30
2022-10-05T01:50:48.913Z,91.30
2022-10-05T01:53:26.002Z,91.30
2022-10-05T01:55:56.143Z,91.30
2022-10-05T01:58:30.576Z,91.30
2022-10-05T02:01:01.909Z,91.20
2022-10-05T02:03:30.759Z,91.30
2022-10-05T02:05:59.338Z,91.60
2022-10-05T02:08:28.804Z,91.60
2022-10-05T02:10:59.654Z,91.60
2022-10-05T02:13:33.781Z,91.80
2022-10-05T02:16:03.233Z,91.90
2022-10-05T02:18:35.220Z,92.20
2022-10-05T02:21:02.963Z,91.80
2022-10-05T02:23:32.111Z,92.50
2022-10-05T02:25:57.400Z,92.40
2022-10-05T02:28:29.281Z,91.50
2022-10-05T02:31:00.109Z,92.00
2022-10-05T02:33:29.750Z,92.00
2022-10-05T02:35:57.594Z,91.70
2022-10-05T02:38:29.401Z,91.80
2022-10-05T02:41:00.556Z,91.60
2022-10-05T02:43:38.931Z,91.80
2022-10-05T02:46:14.585Z,91.70
2022-10-05T02:48:47.206Z,91.80
2022-10-05T02:51:20.663Z,91.60
2022-10-05T02:53:58.407Z,91.60
2022-10-05T02:56:28.307Z,91.70
2022-10-05T02:59:03.147Z,91.60
2022-10-05T03:01:33.875Z,91.80
2022-10-05T03:04:12.657Z,91.70
2022-10-05T03:06:47.405Z,91.70
2022-10-05T03:09:11.638Z,91.50
2022-10-05T03:11:44.577Z,91.70
2022-10-05T03:14:15.695Z,91.60
2022-10-05T03:16:51.959Z,91.60
2022-10-05T03:19:37.106Z,91.40
2022-10-05T03:22:09.148Z,91.30
2022-10-05T03:24:55.082Z,91.30
2022-10-05T03:27:34.203Z,91.30
2022-10-05T03:30:05.640Z,91.10
2022-10-05T03:32:44.608Z,90.90
2022-10-05T03:35:13.382Z,91.00
2022-10-05T03:37:49.444Z,90.90
2022-10-05T03:40:27.392Z,90.70
2022-10-05T03:43:04.343Z,90.80
2022-10-05T03:45:38.044Z,90.70
2022-10-05T03:48:09.371Z,90.30
2022-10-05T03:50:46.999Z,90.30
2022-10-05T03:53:18.662Z,90.30
2022-10-05T03:55:48.335Z,90.00
2022-10-05T03:58:17.255Z,89.90
2022-10-05T04:00:47.144Z,90.20
2022-10-05T04:03:17.284Z,90.10
2022-10-05T04:05:48.134Z,89.90
2022-10-05T04:08:22.213Z,89.70
2022-10-05T04:10:50.746Z,89.80
2022-10-05T04:13:27.166Z,89.50
2022-10-05T04:16:01.126Z,89.40
2022-10-05T04:18:31.014Z,89.20
2022-10-05T04:21:00.101Z,89.20
2022-10-05T04:23:37.034Z,89.40
2022-10-05T04:26:06.139Z,89.40
2022-10-05T04:28:47.992Z,89.30
2022-10-05T04:31:22.881Z,89.50
2022-10-05T04:33:55.750Z,89.20
2022-10-05T04:36:25.756Z,89.20
2022-10-05T04:39:05.969Z,89.40
2022-10-05T04:42:02.822Z,89.40
2022-10-05T04:45:05.561Z,89.30
2022-10-05T04:47:56.974Z,89.20
2022-10-05T04:50:36.411Z,89.20
2022-10-05T04:53:18.595Z,88.90
2022-10-05T04:55:54.356Z,88.90
2022-10-05T04:58:41.407Z,89.00
2022-10-05T05:01:24.950Z,88.90
2022-10-05T05:04:16.246Z,89.00
2022-10-05T05:06:48.677Z,88.80
2022-10-05T05:09:29.044Z,88.80
2022-10-05T05:12:13.975Z,88.70
2022-10-05T05:15:01.892Z,88.80
2022-10-05T05:17:49.205Z,88.50
2022-10-05T05:20:24.181Z,88.50
2022-10-05T05:22:54.392Z,88.50
2022-10-05T05:25:32.176Z,88.60
2022-10-05T05:27:59.066Z,88.40
2022-10-05T05:30:26.167Z,88.50
2022-10-05T05:33:27.348Z,88.10
2022-10-05T05:36:28.467Z,88.60
2022-10-05T05:39:21.197Z,88.70
2022-10-05T05:41:57.378Z,88.70
2022-10-05T05:44:26.531Z,88.60
2022-10-05T05:47:05.127Z,88.30
2022-10-05T05:49:52.322Z,88.30
2022-10-05T05:52:23.677Z,88.10
2022-10-05T05:54:54.431Z,88.20
2022-10-05T05:57:22.995Z,88.20
2022-10-05T06:00:05.458Z,88.10
2022-10-05T06:02:42.795Z,88.20
2022-10-05T06:05:28.791Z,88.00
2022-10-05T06:07:57.276Z,87.60
2022-10-05T06:10:30.882Z,87.90
2022-10-05T06:13:06.689Z,87.60
2022-10-05T06:15:37.010Z,87.50
2022-10-05T06:18:06.978Z,87.60
2022-10-05T06:20:42.454Z,87.30
2022-10-05T06:23:18.418Z,87.30
2022-10-05T06:25:58.379Z,87.30
2022-10-05T06:28:21.828Z,87.20
2022-10-05T06:31:02.865Z,87.40
2022-10-05T06:33:47.178Z,87.50
2022-10-05T06:36:24.716Z,87.30
2022-10-05T06:39:31.780Z,87.00
2022-10-05T06:42:21.344Z,87.10
2022-10-05T06:45:20.628Z,86.90
2022-10-05T06:48:05.847Z,86.70
2022-10-05T06:50:43.809Z,86.70
2022-10-05T06:53:34.053Z,86.30
2022-10-05T06:56:09.306Z,86.00
2022-10-05T06:58:56.760Z,86.60
2022-10-05T07:01:38.762Z,86.60
2022-10-05T07:04:22.580Z,86.90
2022-10-05T07:06:51.919Z,87.10
2022-10-05T07:09:36.439Z,86.60
2022-10-05T07:12:28.737Z,86.60
2022-10-05T07:15:20.722Z,86.60
2022-10-05T07:17:57.743Z,86.20
2022-10-05T07:20:30.480Z,86.30
2022-10-05T07:23:24.246Z,86.10
2022-10-05T07:25:52.332Z,86.00
2022-10-05T07:28:29.392Z,86.10
2022-10-05T07:30:58.314Z,86.20
2022-10-05T07:33:31.424Z,86.00
2022-10-05T07:36:21.919Z,85.90
2022-10-05T07:38:54.339Z,85.90
2022-10-05T07:41:25.108Z,85.60
2022-10-05T07:44:02.618Z,86.30
2022-10-05T07:46:46.550Z,85.70
2022-10-05T07:49:20.957Z,84.70
2022-10-05T07:51:47.761Z,85.10
2022-10-05T07:54:21.716Z,84.90
2022-10-05T07:56:50.497Z,85.20
2022-10-05T07:59:27.639Z,84.90
2022-10-05T08:02:03.798Z,84.80
2022-10-05T08:04:36.034Z,85.00
2022-10-05T08:07:07.523Z,84.60
2022-10-05T08:09:38.617Z,83.90
2022-10-05T08:12:20.747Z,84.60
2022-10-05T08:14:54.572Z,83.60
2022-10-05T08:17:30.130Z,84.20
2022-10-05T08:20:04.785Z,84.40
2022-10-05T08:22:33.515Z,83.90
2022-10-05T08:25:03.281Z,84.00
2022-10-05T08:27:35.299Z,84.00
2022-10-05T08:30:03.229Z,83.90
2022-10-05T08:32:30.452Z,84.40
2022-10-05T08:35:00.262Z,84.30
2022-10-05T08:37:28.375Z,83.70
2022-10-05T08:39:57.874Z,83.50
2022-10-05T08:42:51.408Z,83.80
2022-10-05T08:45:52.380Z,83.60
2022-10-05T08:49:18.806Z,84.10
2022-10-05T08:52:25.085Z,83.70
2022-10-05T08:55:27.114Z,83.10
2022-10-05T08:58:38.537Z,83.20
2022-10-05T09:01:12.322Z,82.60
2022-10-05T09:04:18.003Z,82.70
2022-10-05T09:07:09.788Z,82.60
2022-10-05T09:09:51.072Z,81.80
2022-10-05T09:12:44.559Z,82.20
2022-10-05T09:15:35.957Z,82.60
2022-10-05T09:18:52.784Z,82.10
2022-10-05T09:21:37.080Z,82.70
2022-10-05T09:24:36.670Z,82.20
2022-10-05T09:27:09.004Z,82.70
2022-10-05T09:30:06.236Z,81.70
2022-10-05T09:33:14.589Z,82.10
2022-10-05T09:36:37.205Z,81.90
2022-10-05T09:39:35.009Z,81.10
2022-10-05T09:42:31.689Z,81.00
2022-10-05T09:45:29.589Z,81.60
2022-10-05T09:48:43.107Z,80.80
2022-10-05T09:55:01.346Z,79.70
2022-10-05T09:58:15.103Z,81.10
2022-10-05T10:01:29.230Z,80.60
2022-10-05T10:04:29.686Z,80.20
2022-10-05T10:07:30.251Z,79.80
2022-10-05T10:10:31.824Z,79.10
2022-10-05T10:13:21.664Z,77.40
2022-10-05T10:16:14.404Z,77.10
2022-10-05T10:19:13.550Z,77.00
2022-10-05T10:22:11.919Z,76.80
2022-10-05T10:24:55.803Z,76.20
2022-10-05T10:27:39.682Z,77.00
2022-10-05T10:30:36.595Z,77.10
2022-10-05T10:33:47.376Z,75.90
2022-10-05T10:36:18.276Z,74.60
2022-10-05T10:38:54.422Z,74.90
2022-10-05T10:42:11.498Z,74.80
2022-10-05T10:45:34.696Z,74.30
2022-10-05T10:48:04.965Z,74.40
2022-10-05T10:51:05.353Z,73.60
2022-10-05T10:54:14.989Z,74.30
2022-10-05T10:57:00.476Z,74.10
2022-10-05T11:00:20.273Z,73.20
2022-10-05T11:03:28.355Z,73.20
2022-10-05T11:06:13.781Z,74.80
2022-10-05T11:09:09.660Z,73.20
2022-10-05T11:12:15.153Z,73.30
2022-10-05T11:15:33.546Z,73.20
2022-10-05T11:18:16.667Z,71.90
2022-10-05T11:21:36.638Z,73.40
2022-10-05T11:24:48.514Z,72.50
2022-10-05T11:30:37.212Z,71.40
2022-10-05T11:33:59.225Z,69.60
2022-10-05T11:36:53.641Z,70.90
2022-10-05T11:39:45.022Z,70.50
2022-10-05T11:42:57.270Z,70.70
2022-10-05T11:45:36.184Z,68.40
2022-10-05T11:48:43.482Z,67.50
2022-10-05T11:51:34.149Z,68.40
2022-10-05T11:54:17.526Z,68.10
2022-10-05T11:56:50.710Z,67.10
2022-10-05T11:59:23.184Z,68.60
2022-10-05T12:01:55.845Z,67.60
2022-10-05T12:04:33.239Z,67.30
2022-10-05T12:07:11.128Z,67.60
2022-10-05T12:10:11.456Z,67.30
2022-10-05T12:12:44.199Z,66.20
2022-10-05T12:15:20.153Z,66.10
2022-10-05T12:17:53.343Z,65.30
2022-10-05T12:20:24.755Z,63.60
2022-10-05T12:22:52.745Z,63.80
2022-10-05T12:25:28.671Z,65.70
2022-10-05T12:27:56.200Z,66.10
2022-10-05T12:30:28.291Z,63.10
2022-10-05T12:33:03.434Z,64.10
2022-10-05T12:35:48.294Z,62.60
2022-10-05T12:38:22.987Z,64.10
2022-10-05T12:40:51.826Z,63.70
2022-10-05T12:43:25.673Z,63.80
2022-10-05T12:46:10.669Z,64.10
2022-10-05T12:48:56.114Z,62.50
2022-10-05T12:51:33.123Z,63.70
2022-10-05T12:54:02.515Z,62.00
2022-10-05T12:56:40.344Z,62.20
2022-10-05T12:59:14.784Z,62.10
2022-10-05T13:01:44.644Z,63.20
2022-10-05T13:04:23.291Z,65.70
2022-10-05T13:07:07.921Z,63.40
2022-10-05T13:09:41.379Z,63.10
2022-10-05T13:12:16.156Z,64.10
2022-10-05T13:14:55.385Z,63.70
2022-10-05T13:17:29.840Z,64.60
2022-10-05T13:20:00.125Z,63.00
2022-10-05T13:22:36.894Z,62.90
2022-10-05T13:25:19.284Z,63.00
2022-10-05T13:27:47.476Z,62.50
2022-10-05T13:30:17.332Z,62.40
2022-10-05T13:32:46.097Z,62.40
2022-10-05T13:35:43.183Z,60.40
2022-10-05T13:38:27.315Z,62.00
2022-10-05T13:41:03.383Z,61.30
2022-10-05T13:43:39.304Z,62.40
2022-10-05T13:46:12.906Z,60.50
2022-10-05T13:49:00.962Z,60.50
2022-10-05T13:51:28.512Z,59.60
2022-10-05T13:54:02.775Z,60.00
2022-10-05T13:56:32.168Z,58.80
2022-10-05T13:59:11.938Z,56.80
2022-10-05T14:01:43.212Z,58.40
2022-10-05T14:04:17.873Z,55.90
2022-10-05T14:06:41.443Z,57.20
2022-10-05T14:09:06.080Z,55.80
2022-10-05T14:11:35.227Z,56.60
2022-10-05T14:14:05.741Z,56.20
2022-10-05T14:16:29.694Z,55.60
2022-10-05T14:18:59.812Z,56.10
2022-10-05T14:21:26.506Z,56.70
2022-10-05T14:23:49.779Z,57.80
2022-10-05T14:26:32.667Z,58.70
2022-10-05T14:29:02.800Z,57.30
2022-10-05T14:31:33.695Z,58.10
2022-10-05T14:33:57.175Z,58.50
2022-10-05T14:36:39.152Z,59.40
2022-10-05T14:39:05.178Z,59.90
2022-10-05T14:41:36.254Z,60.30
2022-10-05T14:44:06.038Z,60.20
2022-10-05T14:46:32.637Z,58.20
2022-10-05T14:49:15.696Z,60.30
2022-10-05T14:51:39.257Z,57.40
2022-10-05T14:54:21.196Z,58.00
2022-10-05T14:56:49.504Z,59.60
2022-10-05T14:59:53.922Z,57.40
2022-10-05T15:02:42.298Z,58.70
2022-10-05T15:05:17.596Z,58.50
2022-10-05T15:07:44.858Z,59.30
2022-10-05T15:10:29.401Z,60.10
2022-10-05T15:12:58.247Z,60.20
2022-10-05T15:15:29.328Z,60.80
2022-10-05T15:17:59.297Z,60.60
2022-10-05T15:20:30.534Z,60.80
2022-10-05T15:23:03.390Z,60.70
2022-10-05T15:25:33.407Z,62.40
2022-10-05T15:28:12.939Z,61.80
2022-10-05T15:30:42.093Z,62.40
2022-10-05T15:33:15.913Z,62.10
2022-10-05T15:35:55.243Z,61.60
2022-10-05T15:38:25.453Z,62.00
2022-10-05T15:40:59.586Z,62.10
2022-10-05T15:43:25.034Z,62.00
2022-10-05T15:45:58.246Z,63.00
2022-10-05T15:48:29.724Z,63.00
2022-10-05T15:51:01.642Z,63.00
2022-10-05T15:53:34.043Z,63.00
2022-10-05T15:56:01.174Z,62.40
2022-10-05T15:58:45.499Z,62.20
2022-10-05T16:01:13.209Z,63.60
2022-10-05T16:03:47.969Z,64.40
2022-10-05T16:06:38.433Z,64.00
2022-10-05T16:09:32.091Z,64.20
2022-10-05T16:12:15.441Z,64.50
2022-10-05T16:14:56.628Z,65.20
2022-10-05T16:17:36.539Z,65.80
2022-10-05T16:20:16.430Z,64.30
2022-10-05T16:22:47.322Z,65.10
2022-10-05T16:25:23.380Z,64.80
2022-10-05T16:28:05.931Z,64.30
2022-10-05T16:30:41.024Z,64.40
2022-10-05T16:33:15.434Z,65.60
2022-10-05T16:35:46.948Z,66.20
2022-10-05T16:38:25.171Z,65.90
2022-10-05T16:41:02.230Z,66.40
2022-10-05T16:43:44.939Z,66.10
2022-10-05T16:46:21.905Z,65.90
2022-10-05T16:48:55.102Z,66.40
2022-10-05T16:51:29.753Z,66.30
2022-10-05T16:54:06.352Z,66.80
2022-10-05T16:56:38.970Z,66.90
2022-10-05T16:59:26.095Z,66.90
2022-10-05T17:02:03.608Z,67.30
2022-10-05T17:04:41.829Z,67.00
2022-10-05T17:07:28.728Z,67.60
2022-10-05T17:10:35.835Z,67.00
2022-10-05T17:13:07.273Z,67.00
2022-10-05T17:15:42.581Z,67.40
2022-10-05T17:18:54.281Z,67.70
2022-10-05T17:21:24.588Z,67.10
2022-10-05T17:23:55.783Z,67.40
2022-10-05T17:26:40.946Z,67.30
2022-10-05T17:29:15.553Z,67.30
2022-10-05T17:32:11.160Z,68.00
2022-10-05T17:34:39.407Z,67.30
2022-10-05T17:37:20.273Z,67.50
2022-10-05T17:39:50.514Z,67.70
2022-10-05T17:42:59.284Z,68.30
2022-10-05T17:46:01.537Z,68.50
2022-10-05T17:49:13.757Z,67.90
2022-10-05T17:52:35.499Z,67.80
2022-10-05T17:55:42.828Z,68.10
2022-10-05T17:59:00.723Z,67.70
2022-10-05T18:01:30.315Z,68.10
2022-10-05T18:03:53.920Z,67.30
2022-10-05T18:06:35.390Z,68.60
2022-10-05T18:09:32.942Z,68.40
2022-10-05T18:12:47.427Z,68.00
2022-10-05T18:15:44.908Z,68.00
2022-10-05T18:18:59.787Z,68.40
2022-10-05T18:21:37.736Z,68.80
2022-10-05T18:24:23.453Z,69.00
2022-10-05T18:26:59.609Z,69.20
2022-10-05T18:30:12.935Z,68.10
2022-10-05T18:33:29.893Z,68.40
2022-10-05T18:36:08.808Z,68.30
2022-10-05T18:38:44.438Z,68.70
2022-10-05T18:41:22.539Z,68.90
2022-10-05T18:44:00.752Z,68.40
2022-10-05T18:46:36.744Z,69.00
2022-10-05T18:49:16.260Z,69.00
2022-10-05T18:51:51.983Z,69.00
2022-10-05T18:54:35.074Z,67.20
2022-10-05T18:57:02.368Z,68.00
2022-10-05T18:59:43.327Z,68.10
2022-10-05T19:02:20.907Z,67.60
2022-10-05T19:05:03.333Z,67.70
2022-10-05T19:07:40.956Z,67.30
2022-10-05T19:10:18.632Z,67.50
2022-10-05T19:13:04.947Z,68.00
2022-10-05T19:15:36.988Z,68.10
2022-10-05T19:18:35.316Z,67.40
2022-10-05T19:21:11.392Z,68.00
2022-10-05T19:24:04.443Z,67.50
2022-10-05T19:27:00.728Z,68.20
2022-10-05T19:29:46.424Z,67.90
2022-10-05T19:32:19.664Z,67.70
2022-10-05T19:34:58.736Z,68.20
2022-10-05T19:37:30.920Z,68.90
2022-10-05T19:39:59.039Z,69.50
2022-10-05T19:42:50.394Z,69.30
2022-10-05T19:45:22.604Z,68.80
2022-10-05T19:48:03.767Z,68.90
2022-10-05T19:50:30.578Z,69.40
2022-10-05T19:53:04.137Z,69.10
2022-10-05T19:55:36.067Z,68.40
2022-10-05T19:58:01.223Z,68.60
2022-10-05T20:00:31.229Z,69.00
2022-10-05T20:03:12.901Z,68.80
2022-10-05T20:05:36.484Z,69.80
2022-10-05T20:08:01.067Z,69.60
2022-10-05T20:10:29.252Z,69.30
2022-10-05T20:12:56.007Z,68.70
2022-10-05T20:15:39.682Z,69.30
2022-10-05T20:18:56.801Z,69.30
2022-10-05T20:21:48.015Z,68.80
2022-10-05T20:24:13.496Z,70.40
2022-10-05T20:27:04.250Z,70.10
2022-10-05T20:29:27.719Z,70.50
2022-10-05T20:31:51.097Z,70.00
2022-10-05T20:34:15.755Z,69.60
2022-10-05T20:36:43.110Z,69.50
2022-10-05T20:39:06.402Z,69.80
2022-10-05T20:41:29.622Z,70.00
2022-10-05T20:43:52.931Z,69.30
2022-10-05T20:46:17.671Z,69.90
2022-10-05T20:48:41.033Z,69.40
2022-10-05T20:51:06.072Z,69.80
2022-10-05T20:53:29.422Z,69.50
2022-10-05T20:55:52.717Z,69.90
2022-10-05T20:58:16.296Z,70.30
2022-10-05T21:00:57.238Z,70.50
2022-10-05T21:03:20.603Z,70.30
2022-10-05T21:05:43.821Z,70.40
2022-10-05T21:08:08.558Z,70.10
2022-10-05T21:10:31.778Z,70.30
2022-10-05T21:12:55.022Z,70.60
2022-10-05T21:15:18.505Z,71.20
2022-10-05T21:17:41.726Z,71.90
2022-10-05T21:20:05.676Z,72.60
2022-10-05T21:22:29.019Z,73.20
2022-10-05T21:24:55.209Z,74.30
2022-10-05T21:27:19.251Z,77.30
2022-10-05T21:29:44.068Z,79.10
2022-10-05T21:32:11.238Z,80.60
2022-10-05T21:34:34.496Z,81.70
2022-10-05T21:36:57.883Z,83.70
2022-10-05T21:39:21.147Z,84.80
2022-10-05T21:41:45.818Z,85.00
2022-10-05T21:44:09.172Z,83.10
2022-10-05T21:46:32.474Z,84.20
2022-10-05T21:48:55.961Z,84.70
2022-10-05T21:51:20.593Z,83.50
2022-10-05T21:53:50.192Z,83.30
2022-10-05T21:56:18.374Z,82.70
2022-10-05T21:58:47.636Z,81.90
2022-10-05T22:01:11.043Z,82.10
2022-10-05T22:03:34.339Z,80.60
2022-10-05T22:05:57.799Z,81.40
2022-10-05T22:08:24.933Z,81.00
2022-10-05T22:10:48.426Z,80.50
2022-10-05T22:13:11.717Z,80.80
2022-10-05T22:15:36.335Z,81.60
2022-10-05T22:18:00.677Z,80.80
2022-10-05T22:20:25.072Z,79.20
2022-10-05T22:22:48.487Z,79.30
2022-10-05T22:25:12.129Z,78.80
2022-10-05T22:27:36.308Z,78.80
2022-10-05T22:30:00.054Z,79.80
2022-10-05T22:32:24.716Z,78.90
2022-10-05T22:34:48.024Z,79.50
2022-10-05T22:37:13.408Z,79.60
2022-10-05T22:39:36.613Z,79.40
2022-10-05T22:42:00.061Z,79.40
2022-10-05T22:44:23.338Z,80.30
2022-10-05T22:46:46.565Z,79.90
2022-10-05T22:49:11.344Z,81.40
2022-10-05T22:51:34.597Z,83.70
2022-10-05T22:53:57.832Z,85.90
2022-10-05T22:56:21.738Z,85.80
2022-10-05T22:58:46.738Z,86.30
2022-10-05T23:01:13.648Z,85.70
2022-10-05T23:03:37.167Z,85.10
2022-10-05T23:06:04.603Z,86.20
2022-10-05T23:08:28.356Z,86.70
2022-10-05T23:10:52.531Z,85.90
2022-10-05T23:13:16.630Z,87.10
2022-10-05T23:15:39.845Z,86.90
2022-10-05T23:18:03.081Z,86.50
2022-10-05T23:20:26.387Z,87.30
2022-10-05T23:22:50.971Z,86.60
2022-10-05T23:25:15.031Z,86.70
2022-10-05T23:27:39.157Z,86.20
2022-10-05T23:30:02.401Z,85.90
2022-10-05T23:32:25.662Z,85.30
2022-10-05T23:34:49.089Z,86.20
2022-10-05T23:37:13.506Z,84.60
2022-10-05T23:39:38.072Z,85.60
2022-10-05T23:42:01.336Z,86.40
2022-10-05T23:44:24.609Z,84.10
2022-10-05T23:46:47.848Z,84.90
2022-10-05T23:49:11.092Z,85.20
2022-10-05T23:51:34.408Z,84.20
2022-10-05T23:53:57.655Z,84.10
2022-10-05T23:56:22.307Z,84.00
2022-10-05T23:58:46.124Z,82.30
